createdAt,value
2019-02-18T00:00:42.687Z,67.10
2019-02-18T00:03:11.421Z,67.90
2019-02-18T00:05:40.139Z,67.50
2019-02-18T00:08:08.803Z,67.10
2019-02-18T00:10:37.438Z,67.60
2019-02-18T00:13:06.137Z,67.20
2019-02-18T00:15:34.952Z,67.00
2019-02-18T00:18:03.763Z,66.30
2019-02-18T00:20:32.401Z,67.00
2019-02-18T00:23:01.038Z,67.30
2019-02-18T00:25:29.873Z,67.40
2019-02-18T00:27:58.593Z,66.80
2019-02-18T00:30:27.295Z,66.50
2019-02-18T00:32:55.941Z,66.40
2019-02-18T00:35:24.553Z,67.20
2019-02-18T00:37:53.173Z,67.20
2019-02-18T00:40:21.725Z,67.30
2019-02-18T00:42:50.391Z,67.00
2019-02-18T00:45:19.092Z,66.80
2019-02-18T00:47:48.222Z,66.50
2019-02-18T00:50:17.135Z,66.40
2019-02-18T00:52:45.899Z,66.20
2019-02-18T00:55:14.487Z,66.10
2019-02-18T00:57:43.253Z,66.50
2019-02-18T01:00:16.565Z,66.70
2019-02-18T01:02:45.326Z,67.10
2019-02-18T01:05:14.015Z,67.20
2019-02-18T01:07:42.810Z,67.20
2019-02-18T01:10:14.618Z,67.40
2019-02-18T01:12:43.303Z,67.70
2019-02-18T01:15:15.172Z,67.80
2019-02-18T01:17:43.799Z,67.80
2019-02-18T01:20:13.827Z,67.60
2019-02-18T01:22:42.646Z,67.50
2019-02-18T01:25:13.039Z,67.90
2019-02-18T01:27:41.774Z,67.80
2019-02-18T01:30:15.378Z,68.00
2019-02-18T01:32:44.090Z,67.90
2019-02-18T01:35:13.074Z,67.80
2019-02-18T01:37:45.889Z,67.90
2019-02-18T01:40:14.445Z,68.50
2019-02-18T01:42:43.083Z,68.10
2019-02-18T01:45:13.790Z,68.10
2019-02-18T01:47:42.468Z,68.90
2019-02-18T01:50:13.559Z,68.40
2019-02-18T01:52:42.280Z,69.50
2019-02-18T01:55:12.505Z,68.60
2019-02-18T01:57:41.234Z,69.30
2019-02-18T02:00:12.628Z,70.00
2019-02-18T02:02:41.332Z,68.50
2019-02-18T02:05:12.038Z,67.90
2019-02-18T02:07:40.763Z,68.70
2019-02-18T02:10:11.985Z,68.30
2019-02-18T02:12:40.676Z,68.60
2019-02-18T02:15:18.246Z,69.00
2019-02-18T02:17:46.827Z,68.50
2019-02-18T02:20:17.798Z,69.20
2019-02-18T02:22:46.476Z,69.60
2019-02-18T02:25:15.159Z,69.10
2019-02-18T02:27:43.807Z,69.10
2019-02-18T02:30:12.544Z,69.10
2019-02-18T02:32:43.823Z,69.60
2019-02-18T02:35:12.828Z,69.30
2019-02-18T02:37:41.481Z,70.00
2019-02-18T02:40:10.456Z,69.50
2019-02-18T02:42:39.107Z,69.50
2019-02-18T02:45:56.554Z,69.80
2019-02-18T02:48:29.723Z,69.80
2019-02-18T02:51:43.207Z,69.80
2019-02-18T02:54:14.840Z,69.90
2019-02-18T02:57:03.470Z,70.00
2019-02-18T02:59:36.613Z,69.50
2019-02-18T03:02:07.373Z,69.50
2019-02-18T03:04:36.134Z,68.40
2019-02-18T03:07:04.868Z,68.80
2019-02-18T03:09:33.920Z,68.70
2019-02-18T03:12:02.698Z,69.30
2019-02-18T03:14:31.604Z,70.00
2019-02-18T03:17:16.141Z,70.10
2019-02-18T03:19:44.924Z,69.60
2019-02-18T03:22:13.782Z,69.80
2019-02-18T03:25:14.875Z,69.80
2019-02-18T03:27:45.514Z,69.40
2019-02-18T03:30:41.162Z,69.20
2019-02-18T03:36:31.972Z,69.20
2019-02-18T03:39:07.743Z,69.80
2019-02-18T03:41:41.724Z,69.90
2019-02-18T03:44:10.383Z,70.00
2019-02-18T03:46:38.950Z,71.00
2019-02-18T03:49:07.506Z,70.40
2019-02-18T03:51:36.151Z,70.40
2019-02-18T03:54:04.947Z,70.00
2019-02-18T03:56:33.682Z,70.30
2019-02-18T03:59:02.435Z,69.90
2019-02-18T04:01:31.268Z,70.20
2019-02-18T04:03:59.970Z,70.40
2019-02-18T04:06:28.614Z,70.40
2019-02-18T04:08:57.213Z,70.70
2019-02-18T04:11:25.930Z,70.60
2019-02-18T04:13:54.588Z,70.10
2019-02-18T04:16:23.238Z,70.20
2019-02-18T04:18:52.032Z,70.50
2019-02-18T04:21:22.288Z,71.00
2019-02-18T04:23:50.836Z,71.30
2019-02-18T04:26:19.478Z,71.80
2019-02-18T04:28:50.816Z,70.70
2019-02-18T04:31:19.452Z,70.30
2019-02-18T04:33:48.124Z,71.00
2019-02-18T04:36:16.774Z,71.20
2019-02-18T04:38:53.845Z,71.70
2019-02-18T04:41:15.722Z,72.70
2019-02-18T04:43:45.701Z,72.00
2019-02-18T04:46:14.408Z,71.80
2019-02-18T04:48:43.148Z,72.30
2019-02-18T04:51:11.889Z,72.60
2019-02-18T04:53:41.090Z,72.30
2019-02-18T04:56:09.720Z,72.40
2019-02-18T04:58:38.323Z,72.50
2019-02-18T05:01:06.943Z,72.10
2019-02-18T05:03:36.064Z,71.70
2019-02-18T05:06:04.703Z,71.90
2019-02-18T05:08:33.276Z,71.70
2019-02-18T05:11:01.851Z,72.00
2019-02-18T05:13:30.539Z,71.70
2019-02-18T05:15:59.180Z,71.60
2019-02-18T05:18:27.757Z,72.30
2019-02-18T05:20:56.511Z,72.40
2019-02-18T05:23:25.214Z,72.50
2019-02-18T05:25:53.871Z,71.40
2019-02-18T05:28:23.650Z,71.60
2019-02-18T05:30:52.291Z,72.50
2019-02-18T05:33:20.873Z,71.90
2019-02-18T05:35:49.622Z,71.90
2019-02-18T05:38:18.195Z,72.10
2019-02-18T05:40:47.668Z,71.90
2019-02-18T05:43:16.407Z,71.80
2019-02-18T05:45:45.145Z,72.40
2019-02-18T05:48:13.859Z,72.20
2019-02-18T05:50:42.513Z,72.50
2019-02-18T05:53:12.824Z,72.90
2019-02-18T05:55:44.681Z,72.40
2019-02-18T05:58:13.624Z,71.60
2019-02-18T06:00:44.439Z,71.80
2019-02-18T06:03:34.257Z,71.80
2019-02-18T06:06:04.954Z,72.50
2019-02-18T06:08:33.773Z,73.40
2019-02-18T06:11:02.484Z,73.80
2019-02-18T06:16:37.842Z,73.60
2019-02-18T06:19:05.602Z,73.30
2019-02-18T06:21:34.438Z,73.60
2019-02-18T06:24:03.290Z,72.80
2019-02-18T06:26:31.946Z,72.60
2019-02-18T06:29:01.741Z,72.40
2019-02-18T06:31:30.472Z,72.10
2019-02-18T06:33:59.158Z,72.70
2019-02-18T06:36:27.839Z,72.00
2019-02-18T06:38:57.735Z,71.20
2019-02-18T06:41:26.830Z,70.90
2019-02-18T06:43:55.470Z,71.90
2019-02-18T06:46:29.087Z,72.50
2019-02-18T06:48:59.480Z,73.00
2019-02-18T06:51:28.094Z,72.60
2019-02-18T06:53:56.720Z,71.90
2019-02-18T06:56:27.081Z,71.60
2019-02-18T06:58:57.320Z,71.90
2019-02-18T07:01:27.590Z,72.10
2019-02-18T07:04:10.056Z,71.90
2019-02-18T07:06:40.392Z,72.30
2019-02-18T07:09:19.704Z,72.90
2019-02-18T07:11:49.951Z,73.20
2019-02-18T07:14:18.529Z,72.80
2019-02-18T07:16:47.194Z,72.70
2019-02-18T07:19:15.803Z,72.60
2019-02-18T07:21:44.510Z,73.00
2019-02-18T07:24:15.305Z,72.90
2019-02-18T07:27:04.213Z,72.70
2019-02-18T07:29:36.371Z,73.10
2019-02-18T07:32:10.708Z,73.00
2019-02-18T07:34:49.698Z,72.90
2019-02-18T07:43:41.110Z,72.10
2019-02-18T07:44:17.873Z,73.00
2019-02-18T07:46:09.952Z,72.20
2019-02-18T07:48:38.711Z,72.30
2019-02-18T07:51:07.360Z,72.10
2019-02-18T07:53:36.170Z,71.40
2019-02-18T07:56:04.953Z,70.10
2019-02-18T07:58:33.682Z,69.60
2019-02-18T08:01:04.059Z,68.80
2019-02-18T08:03:32.756Z,67.30
2019-02-18T08:06:04.320Z,66.40
2019-02-18T08:08:43.640Z,66.40
2019-02-18T08:11:13.876Z,66.70
2019-02-18T08:13:42.620Z,67.50
2019-02-18T08:16:11.934Z,66.80
2019-02-18T08:18:40.686Z,65.70
2019-02-18T08:21:09.518Z,66.60
2019-02-18T08:27:18.178Z,65.80
2019-02-18T08:33:20.266Z,65.40
2019-02-18T08:35:52.761Z,65.90
2019-02-18T08:38:28.782Z,65.40
2019-02-18T08:40:57.882Z,65.30
2019-02-18T08:43:26.610Z,65.50
2019-02-18T08:45:58.712Z,65.00
2019-02-18T08:48:27.445Z,65.30
2019-02-18T08:50:56.180Z,66.90
2019-02-18T08:53:25.014Z,67.00
2019-02-18T08:55:53.864Z,67.30
2019-02-18T08:58:23.012Z,67.30
2019-02-18T09:01:02.017Z,66.70
2019-02-18T09:09:45.466Z,65.10
2019-02-18T09:19:01.288Z,64.60
2019-02-18T09:21:31.590Z,63.50
2019-02-18T09:24:16.950Z,63.50
2019-02-18T09:26:45.916Z,63.10
2019-02-18T09:29:31.142Z,63.10
2019-02-18T09:31:49.856Z,62.70
2019-02-18T09:34:18.686Z,62.50
2019-02-18T09:36:47.999Z,61.60
2019-02-18T09:39:30.081Z,60.00
2019-02-18T09:41:49.352Z,60.40
2019-02-18T09:44:20.635Z,60.60
2019-02-18T09:46:52.524Z,59.40
2019-02-18T09:49:21.226Z,59.10
2019-02-18T09:51:49.880Z,58.30
2019-02-18T09:54:18.668Z,59.00
2019-02-18T09:56:47.455Z,58.60
2019-02-18T09:59:35.806Z,58.70
2019-02-18T10:02:04.709Z,58.30
2019-02-18T10:10:29.369Z,59.30
2019-02-18T10:13:10.504Z,58.30
2019-02-18T10:15:39.320Z,57.70
2019-02-18T10:18:08.140Z,57.30
2019-02-18T10:20:36.963Z,56.90
2019-02-18T10:23:05.820Z,57.70
2019-02-18T10:25:37.518Z,57.50
2019-02-18T10:28:06.252Z,56.40
2019-02-18T10:30:35.063Z,57.20
2019-02-18T10:33:04.778Z,57.30
2019-02-18T10:35:33.815Z,57.40
2019-02-18T10:38:02.741Z,57.30
2019-02-18T10:40:31.558Z,57.00
2019-02-18T10:46:15.826Z,57.00
2019-02-18T10:48:44.672Z,57.20
2019-02-18T10:51:13.398Z,55.90
2019-02-18T10:53:46.573Z,56.20
2019-02-18T10:56:18.786Z,55.30
2019-02-18T10:58:59.810Z,55.20
2019-02-18T11:01:33.792Z,55.80
2019-02-18T11:04:02.572Z,55.80
2019-02-18T11:06:31.413Z,56.40
2019-02-18T11:09:00.386Z,56.40
2019-02-18T11:11:31.726Z,55.90
2019-02-18T11:14:00.504Z,54.60
2019-02-18T11:16:29.452Z,55.80
2019-02-18T11:18:58.406Z,56.50
2019-02-18T11:21:31.464Z,55.10
2019-02-18T11:24:07.958Z,55.00
2019-02-18T11:26:37.041Z,54.90
2019-02-18T11:29:05.927Z,55.00
2019-02-18T11:31:38.120Z,55.10
2019-02-18T11:34:06.976Z,53.60
2019-02-18T11:36:37.368Z,54.50
2019-02-18T11:39:09.334Z,54.90
2019-02-18T11:41:38.256Z,53.90
2019-02-18T11:44:07.360Z,53.70
2019-02-18T11:46:36.438Z,53.80
2019-02-18T11:49:07.408Z,53.70
2019-02-18T11:51:35.952Z,53.40
2019-02-18T11:54:04.935Z,52.40
2019-02-18T11:56:34.272Z,52.90
2019-02-18T11:59:03.109Z,53.30
2019-02-18T12:01:32.060Z,52.70
2019-02-18T12:04:03.676Z,53.30
2019-02-18T12:06:34.740Z,52.50
2019-02-18T12:09:04.879Z,52.20
2019-02-18T12:11:38.014Z,52.30
2019-02-18T12:14:05.892Z,51.90
2019-02-18T12:16:34.766Z,51.80
2019-02-18T12:19:03.799Z,52.10
2019-02-18T12:21:53.954Z,52.30
2019-02-18T12:24:22.817Z,51.40
2019-02-18T12:26:51.597Z,50.80
2019-02-18T12:29:26.371Z,50.80
2019-02-18T12:31:51.084Z,51.50
2019-02-18T12:34:20.103Z,52.40
2019-02-18T12:36:48.941Z,51.80
2019-02-18T12:39:18.960Z,51.80
2019-02-18T12:41:48.911Z,51.00
2019-02-18T12:44:17.975Z,51.20
2019-02-18T12:46:47.043Z,51.20
2019-02-18T12:49:15.787Z,51.90
2019-02-18T12:51:48.438Z,51.80
2019-02-18T12:54:17.115Z,51.80
2019-02-18T12:56:45.782Z,51.50
2019-02-18T12:59:14.730Z,52.20
2019-02-18T13:01:43.522Z,52.90
2019-02-18T13:04:12.228Z,52.80
2019-02-18T13:06:40.912Z,52.80
2019-02-18T13:09:15.854Z,52.90
2019-02-18T13:11:44.473Z,52.00
2019-02-18T13:14:13.084Z,52.50
2019-02-18T13:16:41.742Z,52.00
2019-02-18T13:19:10.494Z,51.20
2019-02-18T13:21:41.033Z,50.10
2019-02-18T13:24:09.689Z,51.20
2019-02-18T13:26:38.661Z,51.10
2019-02-18T13:29:07.227Z,50.40
2019-02-18T13:31:36.020Z,50.60
2019-02-18T13:34:04.786Z,50.80
2019-02-18T13:36:33.623Z,51.20
2019-02-18T13:39:02.362Z,51.10
2019-02-18T13:41:31.220Z,52.20
2019-02-18T13:43:59.956Z,51.30
2019-02-18T13:46:28.691Z,51.70
2019-02-18T13:52:09.026Z,50.70
2019-02-18T13:54:37.610Z,50.80
2019-02-18T13:57:09.934Z,51.40
2019-02-18T13:59:38.818Z,51.70
2019-02-18T14:02:13.665Z,50.80
2019-02-18T14:05:02.609Z,51.30
2019-02-18T14:07:32.422Z,50.70
2019-02-18T14:10:01.074Z,49.60
2019-02-18T14:12:30.823Z,50.70
2019-02-18T14:14:59.627Z,50.00
2019-02-18T14:17:28.285Z,49.30
2019-02-18T14:20:01.281Z,48.90
2019-02-18T14:22:29.031Z,50.30
2019-02-18T14:24:57.681Z,50.80
2019-02-18T14:27:26.451Z,51.10
2019-02-18T14:29:55.148Z,50.90
2019-02-18T14:32:24.151Z,49.40
2019-02-18T14:34:52.809Z,50.30
2019-02-18T14:37:21.573Z,50.90
2019-02-18T14:39:50.453Z,49.60
2019-02-18T14:42:24.478Z,49.80
2019-02-18T14:44:49.872Z,48.60
2019-02-18T14:47:18.768Z,49.00
2019-02-18T14:49:47.407Z,48.50
2019-02-18T14:52:22.398Z,49.10
2019-02-18T14:54:51.139Z,49.30
2019-02-18T14:57:20.367Z,50.30
2019-02-18T14:59:49.071Z,51.00
2019-02-18T15:02:17.875Z,51.70
2019-02-18T15:04:46.619Z,51.10
2019-02-18T15:07:15.322Z,51.50
2019-02-18T15:09:44.024Z,51.50
2019-02-18T15:12:12.871Z,51.70
2019-02-18T15:14:42.743Z,51.80
2019-02-18T15:17:11.569Z,52.00
2019-02-18T15:19:40.294Z,51.70
2019-02-18T15:22:09.104Z,51.80
2019-02-18T15:24:37.864Z,51.90
2019-02-18T15:27:06.650Z,51.50
2019-02-18T15:29:35.668Z,51.80
2019-02-18T15:32:04.369Z,51.60
2019-02-18T15:34:33.073Z,52.10
2019-02-18T15:37:03.527Z,52.00
2019-02-18T15:39:32.147Z,51.50
2019-02-18T15:42:00.752Z,52.50
2019-02-18T15:44:29.691Z,53.30
2019-02-18T15:46:58.437Z,54.00
2019-02-18T15:49:27.133Z,54.20
2019-02-18T15:51:55.938Z,53.50
2019-02-18T15:54:27.714Z,53.10
2019-02-18T15:56:56.573Z,53.80
2019-02-18T15:59:25.821Z,53.80
2019-02-18T16:01:54.509Z,54.20
2019-02-18T16:04:23.281Z,54.60
2019-02-18T16:06:51.923Z,54.80
2019-02-18T16:09:21.535Z,54.70
2019-02-18T16:11:50.175Z,54.30
2019-02-18T16:14:22.460Z,54.40
2019-02-18T16:16:51.338Z,55.10
2019-02-18T16:19:20.157Z,55.30
2019-02-18T16:21:49.996Z,56.00
2019-02-18T16:24:20.405Z,55.70
2019-02-18T16:26:49.187Z,56.10
2019-02-18T16:29:18.165Z,57.40
2019-02-18T16:31:53.903Z,57.60
2019-02-18T16:34:22.674Z,57.90
2019-02-18T16:36:51.529Z,58.40
2019-02-18T16:39:33.237Z,58.70
2019-02-18T16:42:02.156Z,59.10
2019-02-18T16:44:31.051Z,59.70
2019-02-18T16:46:59.871Z,59.60
2019-02-18T16:49:28.690Z,60.30
2019-02-18T16:51:57.563Z,60.70
2019-02-18T16:54:26.738Z,61.10
2019-02-18T16:56:55.618Z,61.30
2019-02-18T16:59:24.339Z,61.50
2019-02-18T17:01:54.591Z,62.30
2019-02-18T17:04:23.301Z,62.50
2019-02-18T17:06:53.498Z,62.10
2019-02-18T17:09:22.607Z,62.10
2019-02-18T17:11:51.383Z,62.60
2019-02-18T17:14:20.179Z,63.20
2019-02-18T17:16:48.751Z,63.10
2019-02-18T17:19:18.996Z,63.40
2019-02-18T17:21:49.244Z,63.00
2019-02-18T17:24:18.513Z,62.70
2019-02-18T17:26:47.155Z,62.50
2019-02-18T17:29:15.915Z,62.30
2019-02-18T17:31:44.650Z,62.10
2019-02-18T17:34:16.299Z,61.90
2019-02-18T17:36:44.862Z,62.40
2019-02-18T17:39:14.023Z,62.10
2019-02-18T17:41:42.847Z,62.20
2019-02-18T17:44:19.807Z,62.00
2019-02-18T17:46:42.298Z,61.80
2019-02-18T17:49:11.215Z,62.20
2019-02-18T17:51:40.151Z,62.60
2019-02-18T17:54:08.819Z,62.00
2019-02-18T17:56:37.573Z,62.70
2019-02-18T17:59:06.387Z,63.10
2019-02-18T18:01:35.137Z,63.10
2019-02-18T18:04:03.936Z,62.60
2019-02-18T18:06:32.595Z,62.20
2019-02-18T18:09:01.365Z,61.80
2019-02-18T18:11:30.253Z,61.60
2019-02-18T18:13:59.034Z,61.40
2019-02-18T18:16:28.223Z,61.50
2019-02-18T18:18:57.051Z,62.70
2019-02-18T18:21:25.639Z,62.50
2019-02-18T18:23:54.382Z,62.70
2019-02-18T18:26:24.142Z,62.00
2019-02-18T18:28:52.807Z,62.40
2019-02-18T18:31:21.512Z,62.90
2019-02-18T18:33:50.232Z,62.90
2019-02-18T18:36:18.967Z,64.20
2019-02-18T18:38:47.719Z,65.40
2019-02-18T18:41:16.702Z,64.80
2019-02-18T18:43:45.317Z,64.60
2019-02-18T18:46:13.989Z,64.90
2019-02-18T18:48:45.757Z,65.30
2019-02-18T18:51:17.397Z,66.50
2019-02-18T18:53:45.945Z,67.40
2019-02-18T18:56:14.726Z,67.50
2019-02-18T18:58:43.394Z,68.00
2019-02-18T19:01:11.969Z,68.50
2019-02-18T19:03:41.018Z,68.40
2019-02-18T19:06:09.765Z,67.80
2019-02-18T19:08:38.377Z,67.60
2019-02-18T19:11:07.213Z,68.10
2019-02-18T19:13:42.100Z,69.90
2019-02-18T19:16:21.035Z,70.00
2019-02-18T19:18:50.058Z,69.20
2019-02-18T19:21:22.258Z,69.30
2019-02-18T19:23:53.526Z,70.10
2019-02-18T19:26:30.698Z,70.50
2019-02-18T19:28:59.455Z,70.50
2019-02-18T19:31:28.082Z,70.00
2019-02-18T19:33:58.427Z,70.20
2019-02-18T19:36:32.259Z,70.00
2019-02-18T19:39:00.810Z,71.00
2019-02-18T19:41:29.435Z,73.10
2019-02-18T19:44:00.762Z,74.10
2019-02-18T19:46:29.741Z,73.20
2019-02-18T19:48:58.394Z,72.40
2019-02-18T19:51:27.142Z,71.90
2019-02-18T19:53:55.998Z,72.00
2019-02-18T19:56:25.200Z,72.00
2019-02-18T19:58:53.998Z,71.80
2019-02-18T20:01:23.161Z,71.50
2019-02-18T20:03:54.332Z,71.30
2019-02-18T20:06:23.047Z,70.90
2019-02-18T20:08:57.993Z,70.90
2019-02-18T20:11:31.987Z,70.80
2019-02-18T20:14:10.220Z,70.60
2019-02-18T20:16:44.242Z,71.40
2019-02-18T20:19:27.054Z,71.80
2019-02-18T20:21:58.903Z,72.10
2019-02-18T20:24:27.949Z,73.30
2019-02-18T20:26:57.179Z,74.20
2019-02-18T20:29:25.982Z,75.00
2019-02-18T20:31:54.587Z,75.80
2019-02-18T20:34:23.269Z,76.80
2019-02-18T20:36:51.964Z,77.00
2019-02-18T20:39:20.759Z,77.80
2019-02-18T20:41:51.458Z,78.60
2019-02-18T20:44:20.063Z,79.00
2019-02-18T20:46:48.676Z,79.80
2019-02-18T20:49:17.417Z,80.80
2019-02-18T20:51:46.156Z,81.90
2019-02-18T20:54:14.920Z,83.10
2019-02-18T21:03:07.653Z,84.80
2019-02-18T21:05:36.830Z,85.20
2019-02-18T21:08:05.580Z,84.90
2019-02-18T21:10:34.416Z,85.70
2019-02-18T21:13:03.155Z,86.00
2019-02-18T21:15:31.840Z,85.60
2019-02-18T21:18:00.553Z,86.60
2019-02-18T21:20:29.901Z,86.20
2019-02-18T21:22:58.721Z,86.10
2019-02-18T21:25:27.606Z,85.90
2019-02-18T21:27:56.400Z,85.70
2019-02-18T21:30:25.174Z,85.70
2019-02-18T21:32:53.837Z,85.50
2019-02-18T21:35:23.003Z,85.30
2019-02-18T21:37:51.660Z,85.00
2019-02-18T21:40:20.326Z,84.40
2019-02-18T21:42:48.968Z,84.30
2019-02-18T21:45:17.624Z,86.20
2019-02-18T21:47:46.341Z,85.60
2019-02-18T21:50:15.279Z,86.00
2019-02-18T21:52:44.086Z,85.60
2019-02-18T21:55:13.019Z,86.00
2019-02-18T21:57:41.806Z,85.10
2019-02-18T22:00:20.608Z,85.20
2019-02-18T22:02:49.544Z,85.30
2019-02-18T22:05:18.492Z,85.40
2019-02-18T22:07:47.328Z,85.70
2019-02-18T22:10:16.072Z,85.80
2019-02-18T22:12:44.855Z,86.20
2019-02-18T22:15:14.769Z,86.40
2019-02-18T22:17:43.452Z,86.50
2019-02-18T22:20:14.052Z,86.40
2019-02-18T22:22:42.859Z,86.60
2019-02-18T22:25:12.991Z,86.10
2019-02-18T22:27:41.848Z,86.90
2019-02-18T22:30:13.250Z,87.20
2019-02-18T22:32:41.960Z,87.10
2019-02-18T22:35:10.751Z,87.90
2019-02-18T22:37:39.470Z,87.80
2019-02-18T22:40:10.465Z,87.80
2019-02-18T22:42:39.406Z,86.80
2019-02-18T22:45:10.438Z,87.00
2019-02-18T22:47:39.207Z,87.50
2019-02-18T22:50:10.593Z,87.10
2019-02-18T22:52:39.364Z,86.80
2019-02-18T22:55:09.085Z,86.60
2019-02-18T22:57:37.802Z,87.00
2019-02-18T23:00:27.721Z,86.30
2019-02-18T23:02:56.936Z,86.40
2019-02-18T23:05:25.702Z,85.30
2019-02-18T23:07:54.493Z,84.90
2019-02-18T23:10:23.204Z,85.30
2019-02-18T23:12:51.996Z,85.80
2019-02-18T23:15:20.889Z,85.80
2019-02-18T23:17:49.652Z,87.10
2019-02-18T23:20:18.365Z,86.40
2019-02-18T23:22:46.977Z,87.00
2019-02-18T23:25:15.628Z,87.40
2019-02-18T23:27:44.412Z,87.60
2019-02-18T23:30:13.219Z,87.40
2019-02-18T23:32:42.048Z,87.20
2019-02-18T23:35:11.180Z,87.00
2019-02-18T23:37:40.000Z,87.10
2019-02-18T23:40:08.818Z,86.50
2019-02-18T23:42:37.813Z,86.40
2019-02-18T23:45:06.671Z,86.40
2019-02-18T23:47:35.359Z,86.20
2019-02-18T23:50:04.389Z,86.30
2019-02-18T23:52:33.249Z,86.10
2019-02-18T23:55:02.126Z,86.40
2019-02-18T23:57:30.855Z,85.90
2019-02-18T23:59:59.711Z,86.40
